Time;durP1;ratioP1;P1;durP2;ratioP2;P2;SDS_P1;SDS_P2;PMS_P1;PMS_P2;Temp;Humidity;BMP_temperature;BMP_pressure;BME280_temperature;BME280_humidity;BME280_pressure;Samples;Min_cycle;Max_cycle;Signal;HPM_P1;HPM_P2
2023/02/13 00:01:12;;;;;;;142.20;71.77;;;1.30;99.90;;;;;;5116040;28;20625;-82
2023/02/13 00:03:38;;;;;;;132.40;71.00;;;1.30;99.90;;;;;;5115788;28;20202;-82
2023/02/13 00:06:03;;;;;;;126.23;75.00;;;1.30;99.90;;;;;;5097428;28;20196;-81
2023/02/13 00:08:29;;;;;;;136.00;71.10;;;1.30;99.90;;;;;;5097283;28;20673;-83
2023/02/13 00:10:55;;;;;;;135.87;72.13;;;1.20;99.90;;;;;;5115855;28;20267;-82
2023/02/13 00:13:21;;;;;;;145.50;74.20;;;1.20;99.90;;;;;;5096827;28;20243;-82
2023/02/13 00:15:58;;;;;;;147.27;73.20;;;1.20;99.90;;;;;;5097276;28;20568;-82
2023/02/13 00:18:24;;;;;;;130.20;70.40;;;1.20;99.90;;;;;;5096925;28;20434;-78
2023/02/13 00:21:01;;;;;;;125.82;69.05;;;1.10;99.90;;;;;;5097150;28;20179;-81
2023/02/13 00:23:30;;;;;;;130.15;73.35;;;1.10;99.90;;;;;;5115205;28;20210;-85
2023/02/13 00:25:55;;;;;;;134.70;71.38;;;1.10;99.90;;;;;;5096912;28;20637;-80
2023/02/13 00:28:21;;;;;;;138.93;72.33;;;1.00;99.90;;;;;;5114992;28;20283;-80
2023/02/13 00:30:47;;;;;;;118.37;63.97;;;1.00;99.90;;;;;;5115466;28;20487;-85
2023/02/13 00:33:12;;;;;;;108.90;60.10;;;1.00;99.90;;;;;;5096637;28;20580;-81
2023/02/13 00:35:38;;;;;;;117.23;62.93;;;0.90;99.90;;;;;;5096820;28;20593;-84
2023/02/13 00:38:04;;;;;;;126.63;68.53;;;0.90;99.90;;;;;;5096872;28;20245;-81
2023/02/13 00:40:29;;;;;;;138.53;70.13;;;0.80;99.90;;;;;;5115180;28;20420;-81
2023/02/13 00:42:55;;;;;;;143.33;68.10;;;0.90;99.90;;;;;;5114729;28;20201;-85
2023/02/13 00:45:20;;;;;;;126.07;66.93;;;0.90;99.90;;;;;;5096665;28;20640;-84
2023/02/13 00:47:46;;;;;;;124.97;68.93;;;0.90;99.90;;;;;;5096350;28;20569;-84
2023/02/13 00:50:12;;;;;;;119.23;68.37;;;0.90;99.90;;;;;;5096491;28;20176;-84
2023/02/13 00:52:38;;;;;;;122.90;61.87;;;0.80;99.90;;;;;;5114499;28;20192;-81
2023/02/13 00:55:04;;;;;;;116.45;63.20;;;0.80;99.90;;;;;;5114870;28;20206;-84
2023/02/13 00:57:30;;;;;;;121.23;62.00;;;0.90;99.90;;;;;;5096289;28;20304;-85
2023/02/13 00:59:57;;;;;;;113.78;57.45;;;0.90;99.90;;;;;;5096282;28;20462;-81
2023/02/13 01:02:23;;;;;;;109.18;56.20;;;0.90;99.90;;;;;;5114370;28;20200;-80
2023/02/13 01:04:48;;;;;;;109.80;59.33;;;0.90;99.90;;;;;;5114710;28;20182;-81
2023/02/13 01:07:14;;;;;;;105.60;58.47;;;0.90;99.90;;;;;;5095300;28;20999;-81
2023/02/13 01:09:40;;;;;;;103.90;57.60;;;1.00;99.90;;;;;;5096136;28;20677;-85
2023/02/13 01:12:06;;;;;;;102.60;56.93;;;0.90;99.90;;;;;;5096012;28;20279;-81
2023/02/13 01:14:32;;;;;;;111.15;60.28;;;0.90;99.90;;;;;;5114178;28;20925;-81
2023/02/13 01:16:58;;;;;;;118.43;61.95;;;0.90;99.90;;;;;;5114664;28;20637;-85
2023/02/13 01:19:23;;;;;;;120.43;62.00;;;0.90;99.90;;;;;;5114123;28;20178;-80
2023/02/13 01:21:49;;;;;;;125.50;64.77;;;0.90;99.90;;;;;;5114209;28;20179;-85
2023/02/13 01:24:15;;;;;;;117.63;58.03;;;1.00;99.90;;;;;;5114301;28;20569;-85
2023/02/13 01:26:40;;;;;;;109.27;58.40;;;0.90;99.90;;;;;;5095811;28;20839;-82
2023/02/13 01:29:06;;;;;;;121.10;58.93;;;0.90;99.90;;;;;;5114187;28;20187;-85
2023/02/13 01:31:32;;;;;;;133.00;62.47;;;0.90;99.90;;;;;;5114176;28;20168;-84
2023/02/13 01:33:58;;;;;;;142.27;61.63;;;0.80;99.90;;;;;;5114005;28;20687;-82
2023/02/13 01:36:25;;;;;;;200.63;85.38;;;0.70;99.90;;;;;;5114072;28;20168;-79
2023/02/13 01:38:57;;;;;;;164.35;72.03;;;0.60;99.90;;;;;;5095751;28;20214;-82
2023/02/13 01:41:25;;;;;;;161.13;66.95;;;0.60;99.90;;;;;;5095819;28;20184;-82
2023/02/13 01:43:57;;;;;;;142.38;64.30;;;0.70;99.90;;;;;;5095605;28;20259;-78
2023/02/13 01:46:29;;;;;;;123.28;60.25;;;0.70;99.90;;;;;;5113975;28;20212;-78
2023/02/13 01:49:11;;;;;;;102.57;52.35;;;0.70;99.90;;;;;;5095527;28;20197;-81
2023/02/13 01:51:37;;;;;;;92.60;46.65;;;0.60;99.90;;;;;;5113951;28;20541;-78
2023/02/13 01:54:29;;;;;;;96.90;47.88;;;0.50;99.90;;;;;;5095573;28;20188;-82
2023/02/13 01:57:02;;;;;;;84.78;45.55;;;0.60;99.90;;;;;;5095598;28;20264;-83
2023/02/13 01:59:51;;;;;;;88.50;46.35;;;0.60;99.90;;;;;;5114133;28;20180;-83
2023/02/13 02:02:18;;;;;;;90.22;44.33;;;0.50;99.90;;;;;;5114246;28;20192;-81
2023/02/13 02:04:46;;;;;;;85.97;44.00;;;0.50;99.90;;;;;;5114057;28;20648;-83
2023/02/13 02:07:33;;;;;;;83.25;42.25;;;0.50;99.90;;;;;;5114173;28;20714;-84
2023/02/13 02:10:03;;;;;;;72.72;40.92;;;0.50;99.90;;;;;;5114511;28;20190;-82
2023/02/13 02:12:50;;;;;;;74.40;40.15;;;0.50;99.90;;;;;;5095414;28;20199;-82
2023/02/13 02:15:16;;;;;;;74.55;40.90;;;0.50;99.90;;;;;;5114066;28;20184;-82
2023/02/13 02:17:42;;;;;;;83.95;43.65;;;0.30;99.90;;;;;;5113544;28;20198;-82
2023/02/13 02:20:29;;;;;;;76.47;42.90;;;0.10;99.90;;;;;;5117618;28;20229;-82
2023/02/13 02:23:52;;;;;;;87.35;46.45;;;0.00;99.90;;;;;;5099234;28;20443;-78
2023/02/13 02:26:50;;;;;;;81.40;48.22;;;0.00;99.90;;;;;;5015009;28;20298;-82
2023/02/13 02:29:37;;;;;;;84.60;44.58;;;0.00;99.90;;;;;;5014952;28;20180;-81
2023/02/13 02:32:24;;;;;;;72.95;44.03;;;0.00;99.90;;;;;;5081529;28;20578;-83
2023/02/13 02:35:09;;;;;;;80.93;44.63;;;0.20;99.90;;;;;;5117574;28;20529;-78
2023/02/13 02:37:59;;;;;;;81.05;43.00;;;0.30;99.90;;;;;;5098916;28;20538;-79
2023/02/13 02:40:43;;;;;;;77.78;43.15;;;0.30;99.90;;;;;;5099106;28;20179;-79
2023/02/13 02:43:30;;;;;;;74.32;42.83;;;0.40;99.90;;;;;;5117208;28;20287;-79
2023/02/13 02:46:05;;;;;;;72.28;41.30;;;0.40;99.90;;;;;;5098847;28;20253;-82
2023/02/13 02:51:45;;;;;;;78.75;44.95;;;0.30;99.90;;;;;;5117095;28;20162;-78
2023/02/13 02:57:06;;;;;;;81.60;43.60;;;0.30;99.90;;;;;;5116924;28;20219;-82
2023/02/13 03:07:48;;;;;;;77.63;46.97;;;0.40;99.90;;;;;;5116649;28;20218;-79
2023/02/13 03:13:27;;;;;;;88.57;44.85;;;0.40;99.90;;;;;;5116657;28;20292;-82
2023/02/13 03:22:17;;;;;;;81.03;46.05;;;0.50;99.90;;;;;;5116520;28;20178;-78
2023/02/13 03:24:49;;;;;;;84.25;46.63;;;0.50;99.90;;;;;;5098595;28;20723;-78
2023/02/13 03:31:01;;;;;;;75.15;45.47;;;0.60;99.90;;;;;;5115993;28;20267;-78
2023/02/13 03:33:32;;;;;;;77.10;43.88;;;0.50;99.90;;;;;;5097957;28;20282;-80
2023/02/13 03:39:19;;;;;;;75.97;44.45;;;0.60;99.90;;;;;;5115985;28;20203;-78
2023/02/13 03:41:49;;;;;;;85.53;44.80;;;0.50;99.90;;;;;;5115964;28;20186;-78
2023/02/13 03:44:19;;;;;;;71.60;45.13;;;0.60;99.90;;;;;;5115961;28;20636;-82
2023/02/13 03:46:49;;;;;;;83.03;45.38;;;0.50;99.90;;;;;;5115728;28;20211;-78
2023/02/13 03:52:26;;;;;;;73.63;43.10;;;0.60;99.90;;;;;;5115894;28;20248;-82
2023/02/13 04:00:38;;;;;;;74.78;44.78;;;0.60;99.90;;;;;;5116026;28;20186;-83
2023/02/13 04:03:14;;;;;;;73.13;44.10;;;0.60;99.90;;;;;;5097304;28;20199;-83
2023/02/13 04:05:48;;;;;;;86.25;45.13;;;0.60;99.90;;;;;;5116029;28;20167;-78
2023/02/13 04:08:14;;;;;;;76.05;43.25;;;0.50;99.90;;;;;;5097264;28;20783;-78
2023/02/13 04:11:08;;;;;;;68.80;40.43;;;0.40;99.90;;;;;;5115452;28;20210;-79
2023/02/13 04:13:41;;;;;;;76.13;41.53;;;0.40;99.90;;;;;;5103901;28;20472;-79
2023/02/13 04:16:12;;;;;;;72.78;40.45;;;0.40;99.90;;;;;;5115988;28;20203;-78
2023/02/13 04:18:38;;;;;;;62.35;38.53;;;0.40;99.90;;;;;;5115185;28;20221;-83
2023/02/13 04:21:06;;;;;;;71.22;41.28;;;0.30;99.90;;;;;;5115715;28;20179;-82
2023/02/13 04:23:32;;;;;;;69.32;38.10;;;0.30;99.90;;;;;;5115188;28;20200;-78
2023/02/13 04:26:02;;;;;;;69.05;37.78;;;0.40;99.90;;;;;;5115529;28;20617;-78
2023/02/13 04:28:28;;;;;;;70.07;39.30;;;0.30;99.90;;;;;;5115028;28;20274;-83
2023/02/13 04:30:54;;;;;;;66.40;39.07;;;0.40;99.90;;;;;;5097096;28;20240;-81
2023/02/13 04:33:19;;;;;;;69.67;38.83;;;0.40;99.90;;;;;;5114950;28;20410;-78
2023/02/13 04:35:45;;;;;;;67.77;37.90;;;0.40;99.90;;;;;;5096891;28;20186;-78
2023/02/13 04:38:11;;;;;;;69.00;37.50;;;0.40;99.90;;;;;;5114906;28;20195;-77
2023/02/13 04:40:36;;;;;;;71.03;37.03;;;0.40;99.90;;;;;;5096720;28;20446;-83
2023/02/13 04:43:02;;;;;;;60.77;37.67;;;0.40;99.90;;;;;;5095534;28;20245;-82
2023/02/13 04:45:28;;;;;;;63.00;38.20;;;0.50;99.90;;;;;;5115086;28;20168;-82
2023/02/13 04:47:55;;;;;;;74.17;37.67;;;0.40;99.90;;;;;;5096382;28;20236;-83
2023/02/13 04:50:21;;;;;;;69.28;37.80;;;0.40;99.90;;;;;;5096663;28;20211;-78
2023/02/13 04:52:49;;;;;;;67.82;37.47;;;0.40;99.90;;;;;;5096354;28;20740;-79
2023/02/13 04:55:15;;;;;;;71.15;37.50;;;0.30;99.90;;;;;;5114870;28;20168;-83
2023/02/13 04:57:40;;;;;;;60.47;35.43;;;0.20;99.90;;;;;;5114505;28;20203;-84
2023/02/13 05:00:07;;;;;;;68.10;36.50;;;0.00;99.90;;;;;;5096677;28;20816;-83
2023/02/13 05:02:33;;;;;;;74.88;40.00;;;0.10;99.90;;;;;;5095593;28;20199;-83
2023/02/13 05:04:58;;;;;;;65.50;38.20;;;0.10;99.90;;;;;;5114163;28;20182;-82
2023/02/13 05:07:24;;;;;;;79.13;42.40;;;-0.10;99.90;;;;;;5114272;28;20756;-78
2023/02/13 05:09:50;;;;;;;74.10;38.83;;;-0.10;99.90;;;;;;5114587;28;20168;-85
2023/02/13 05:12:15;;;;;;;76.33;42.37;;;-0.20;99.90;;;;;;5114732;28;20288;-83
2023/02/13 05:14:41;;;;;;;87.03;48.87;;;-0.30;99.90;;;;;;5095212;28;20526;-78
2023/02/13 05:17:06;;;;;;;88.03;46.93;;;-0.30;99.90;;;;;;5093945;28;20200;-78
2023/02/13 05:19:32;;;;;;;78.77;44.40;;;-0.20;99.90;;;;;;5093985;28;20632;-83
2023/02/13 05:24:52;;;;;;;94.47;46.35;;;-0.30;99.90;;;;;;5056567;28;20276;-81
2023/02/13 05:27:18;;;;;;;99.87;47.93;;;-0.20;99.90;;;;;;5091807;28;20387;-77
2023/02/13 05:29:44;;;;;;;111.23;55.10;;;-0.10;99.90;;;;;;5087818;28;20175;-81
2023/02/13 05:32:09;;;;;;;100.40;51.20;;;-0.10;99.90;;;;;;5077699;28;20292;-82
2023/02/13 05:34:35;;;;;;;92.67;51.00;;;-0.10;99.90;;;;;;5087939;28;20179;-82
2023/02/13 05:37:01;;;;;;;72.67;40.53;;;-0.10;99.90;;;;;;5113991;28;20227;-80
2023/02/13 05:39:27;;;;;;;96.93;49.80;;;0.50;99.90;;;;;;5095723;28;20176;-82
2023/02/13 05:41:52;;;;;;;82.07;47.17;;;0.90;99.90;;;;;;5101090;28;20230;-82
2023/02/13 05:44:18;;;;;;;81.40;45.40;;;0.60;99.90;;;;;;5095481;28;20720;-78
2023/02/13 05:46:44;;;;;;;96.27;48.60;;;0.40;99.90;;;;;;5092590;28;20265;-78
2023/02/13 05:49:11;;;;;;;86.40;48.20;;;0.20;99.90;;;;;;5085659;28;20186;-78
2023/02/13 05:51:37;;;;;;;88.40;48.85;;;0.00;99.90;;;;;;5084819;28;20412;-81
2023/02/13 05:54:03;;;;;;;90.53;50.00;;;-0.10;99.90;;;;;;5107763;28;20198;-81
2023/02/13 05:56:28;;;;;;;88.13;47.03;;;-0.10;99.90;;;;;;5079045;28;20231;-80
2023/02/13 05:58:55;;;;;;;87.33;48.30;;;-0.20;99.90;;;;;;5085301;28;20406;-80
2023/02/13 06:01:22;;;;;;;88.05;49.58;;;-0.20;99.90;;;;;;5114187;28;20183;-78
2023/02/13 06:03:48;;;;;;;78.50;42.72;;;-0.20;99.90;;;;;;5112880;28;20566;-81
2023/02/13 06:06:14;;;;;;;78.10;43.88;;;-0.20;99.90;;;;;;5077381;28;20184;-81
2023/02/13 06:08:40;;;;;;;81.30;44.35;;;-0.20;99.90;;;;;;5095573;28;20223;-84
2023/02/13 06:11:06;;;;;;;108.47;59.60;;;-0.20;99.90;;;;;;5083565;28;20199;-81
2023/02/13 06:13:32;;;;;;;89.55;51.17;;;-0.20;99.90;;;;;;5116884;28;20661;-80
2023/02/13 06:15:57;;;;;;;87.37;46.80;;;-0.10;99.90;;;;;;5103706;28;20172;-84
2023/02/13 06:18:23;;;;;;;98.53;50.50;;;-0.20;99.90;;;;;;5107102;28;20294;-80
2023/02/13 06:20:49;;;;;;;100.87;57.80;;;-0.20;99.90;;;;;;5117704;28;20225;-80
2023/02/13 06:23:15;;;;;;;114.50;60.37;;;-0.30;99.90;;;;;;5112835;28;20436;-80
2023/02/13 06:25:40;;;;;;;115.00;61.10;;;-0.20;99.90;;;;;;5082661;28;20424;-80
2023/02/13 06:28:06;;;;;;;93.07;58.97;;;-0.20;99.90;;;;;;5077135;28;20265;-80
2023/02/13 06:30:32;;;;;;;105.75;57.42;;;-0.20;99.90;;;;;;5108174;28;20586;-80
2023/02/13 06:32:58;;;;;;;102.10;63.20;;;-0.10;99.90;;;;;;5105770;28;20235;-84
2023/02/13 06:35:24;;;;;;;116.70;66.80;;;0.00;99.90;;;;;;5087290;28;20184;-84
2023/02/13 06:37:49;;;;;;;128.65;75.32;;;0.10;99.90;;;;;;5103504;28;20480;-84
2023/02/13 06:40:16;;;;;;;123.07;69.43;;;0.10;99.90;;;;;;5103659;28;20188;-83
2023/02/13 06:42:42;;;;;;;107.22;60.00;;;0.30;99.90;;;;;;5085810;28;20299;-83
2023/02/13 06:45:11;;;;;;;94.53;58.35;;;0.40;99.90;;;;;;5103884;28;20180;-84
2023/02/13 06:47:41;;;;;;;111.65;61.13;;;0.50;99.90;;;;;;5111228;27;20211;-83
2023/02/13 06:50:08;;;;;;;103.68;58.67;;;0.50;99.90;;;;;;5107583;28;20236;-83
2023/02/13 06:52:34;;;;;;;116.22;59.03;;;0.40;99.90;;;;;;5089691;27;20578;-83
2023/02/13 06:55:00;;;;;;;94.20;55.90;;;0.40;99.90;;;;;;5089671;28;20237;-83
2023/02/13 06:57:26;;;;;;;110.90;58.63;;;0.50;99.90;;;;;;5083422;28;20684;-83
2023/02/13 06:59:51;;;;;;;108.27;59.37;;;0.60;99.90;;;;;;5103818;28;20629;-80
2023/02/13 07:02:17;;;;;;;114.77;65.03;;;0.70;99.90;;;;;;5104850;28;20246;-80
2023/02/13 07:04:43;;;;;;;129.97;68.67;;;0.80;99.90;;;;;;5086883;28;20211;-83
2023/02/13 07:07:09;;;;;;;130.57;70.93;;;0.90;99.90;;;;;;5101306;28;20450;-83
2023/02/13 07:09:35;;;;;;;128.27;70.23;;;1.00;99.90;;;;;;5097921;28;20212;-80
2023/02/13 07:12:04;;;;;;;131.48;72.45;;;1.10;99.90;;;;;;5083748;28;20791;-82
2023/02/13 07:14:30;;;;;;;144.07;79.80;;;1.20;99.90;;;;;;5101531;28;20211;-82
2023/02/13 07:16:56;;;;;;;155.87;83.23;;;1.30;99.90;;;;;;5073888;28;20564;-79
2023/02/13 07:19:22;;;;;;;208.55;94.78;;;1.50;99.90;;;;;;5101571;28;20439;-82
2023/02/13 07:21:48;;;;;;;184.50;91.20;;;1.60;99.90;;;;;;5104189;28;20538;-80
2023/02/13 07:24:13;;;;;;;149.63;78.30;;;1.70;99.90;;;;;;5104066;28;20176;-82
2023/02/13 07:26:39;;;;;;;84.70;50.63;;;1.90;99.90;;;;;;5085427;28;20215;-77
2023/02/13 07:29:05;;;;;;;102.03;57.10;;;2.00;99.90;;;;;;5102079;28;20282;-79
2023/02/13 07:31:34;;;;;;;86.50;49.50;;;2.10;99.90;;;;;;5107024;28;20187;-78
2023/02/13 07:33:59;;;;;;;80.07;45.85;;;2.20;99.90;;;;;;5091972;28;20199;-78
2023/02/13 07:36:26;;;;;;;80.20;44.33;;;2.50;99.90;;;;;;5085885;28;20754;-77
2023/02/13 07:38:52;;;;;;;68.88;42.05;;;2.90;99.90;;;;;;5080628;28;20189;-80
2023/02/13 07:41:17;;;;;;;74.97;42.87;;;3.40;99.90;;;;;;5081134;28;20180;-81
2023/02/13 07:43:43;;;;;;;69.73;42.80;;;3.80;99.90;;;;;;5063045;28;20227;-81
2023/02/13 07:46:09;;;;;;;64.40;39.60;;;4.20;99.90;;;;;;5062714;27;20187;-80
2023/02/13 07:48:35;;;;;;;61.22;38.60;;;4.40;99.90;;;;;;5083070;28;20900;-78
2023/02/13 07:51:02;;;;;;;59.00;36.80;;;4.50;99.90;;;;;;5082781;28;20184;-77
2023/02/13 07:53:28;;;;;;;54.70;33.95;;;4.60;99.90;;;;;;5082453;28;20210;-81
2023/02/13 07:55:54;;;;;;;44.80;27.05;;;4.70;99.90;;;;;;5082655;28;20176;-80
2023/02/13 07:58:20;;;;;;;42.27;26.10;;;5.00;99.90;;;;;;5067774;28;20203;-81
2023/02/13 08:00:45;;;;;;;46.80;30.77;;;5.30;99.90;;;;;;5093644;28;20586;-82
2023/02/13 08:03:11;;;;;;;37.97;25.80;;;5.80;99.90;;;;;;5092159;28;20529;-81
2023/02/13 08:05:37;;;;;;;35.03;24.70;;;6.50;99.90;;;;;;5068358;28;20241;-78
2023/02/13 08:08:03;;;;;;;35.00;24.80;;;7.10;99.90;;;;;;5086244;28;20223;-82
2023/02/13 08:13:15;;;;;;;36.90;27.30;;;8.20;99.90;;;;;;5088891;28;20707;-79
2023/02/13 08:15:43;;;;;;;52.97;39.45;;;9.30;99.90;;;;;;5098000;28;20179;-82
2023/02/13 08:18:09;;;;;;;35.97;24.40;;;10.20;99.90;;;;;;5095704;28;20269;-78
2023/02/13 08:20:35;;;;;;;33.70;25.40;;;10.90;99.90;;;;;;5115308;28;20184;-81
2023/02/13 08:23:09;;;;;;;34.53;23.97;;;11.10;99.90;;;;;;5110672;28;20213;-79
2023/02/13 08:25:37;;;;;;;26.20;19.98;;;11.40;99.90;;;;;;5103789;28;20180;-79
2023/02/13 08:28:03;;;;;;;26.52;20.73;;;11.90;99.90;;;;;;5088688;28;20703;-81
2023/02/13 08:30:29;;;;;;;30.20;20.88;;;12.40;99.90;;;;;;5085746;28;20221;-79
2023/02/13 08:32:54;;;;;;;28.33;21.20;;;12.90;99.80;;;;;;5102505;28;20221;-79
2023/02/13 08:35:21;;;;;;;28.00;20.70;;;13.30;98.30;;;;;;5107456;28;20180;-79
2023/02/13 08:37:47;;;;;;;27.63;19.13;;;13.60;97.40;;;;;;5112702;28;20191;-80
2023/02/13 08:40:13;;;;;;;32.53;23.27;;;14.00;96.50;;;;;;5112279;28;20442;-80
2023/02/13 08:42:39;;;;;;;30.57;22.00;;;14.50;95.70;;;;;;5108235;28;20291;-80
2023/02/13 08:45:05;;;;;;;28.70;20.53;;;15.10;93.90;;;;;;5106792;27;20514;-84
2023/02/13 08:47:31;;;;;;;29.80;22.40;;;15.60;92.90;;;;;;5088355;28;20314;-84
2023/02/13 08:49:57;;;;;;;30.97;23.90;;;15.90;91.20;;;;;;5086105;28;20414;-79
2023/02/13 08:52:23;;;;;;;36.50;29.60;;;16.00;91.40;;;;;;5089101;28;21039;-84
2023/02/13 08:54:49;;;;;;;27.83;21.63;;;16.50;90.30;;;;;;5105129;28;20202;-83
2023/02/13 08:57:14;;;;;;;26.60;20.30;;;16.90;89.10;;;;;;5089833;28;20452;-80
2023/02/13 08:59:40;;;;;;;24.47;19.37;;;17.10;87.30;;;;;;5104385;28;20259;-85
2023/02/13 09:02:05;;;;;;;31.90;21.90;;;17.10;87.20;;;;;;5094330;28;20204;-83
2023/02/13 09:04:32;;;;;;;25.97;20.70;;;17.40;86.00;;;;;;5111763;28;20179;-84
2023/02/13 09:06:57;;;;;;;26.23;20.47;;;17.80;85.00;;;;;;5107668;28;20684;-80
2023/02/13 09:09:23;;;;;;;28.57;22.37;;;18.00;83.60;;;;;;5107955;28;20424;-85
2023/02/13 09:11:50;;;;;;;27.30;20.97;;;18.10;83.30;;;;;;5087333;28;20268;-80
2023/02/13 09:14:16;;;;;;;22.60;18.87;;;18.10;81.20;;;;;;5071476;28;20578;-84
2023/02/13 09:16:42;;;;;;;27.50;20.77;;;17.60;81.60;;;;;;5090029;28;20416;-84
2023/02/13 09:19:07;;;;;;;24.30;19.63;;;17.40;81.40;;;;;;5084006;28;20164;-84
2023/02/13 09:21:33;;;;;;;24.10;19.43;;;17.40;81.40;;;;;;5081304;28;20595;-81
2023/02/13 09:23:59;;;;;;;25.70;19.50;;;17.60;81.30;;;;;;5103492;28;20207;-84
2023/02/13 09:26:24;;;;;;;27.43;22.37;;;17.70;80.60;;;;;;5100961;28;20664;-80
2023/02/13 09:28:50;;;;;;;25.90;19.83;;;17.80;79.90;;;;;;5084335;28;20242;-84
2023/02/13 09:31:19;;;;;;;23.83;20.70;;;17.90;79.50;;;;;;5099505;28;20189;-82
2023/02/13 09:33:47;;;;;;;27.10;20.60;;;18.20;79.20;;;;;;5101924;28;20207;-84
2023/02/13 09:36:21;;;;;;;29.33;22.03;;;18.50;78.60;;;;;;5102555;28;20463;-81
2023/02/13 09:38:57;;;;;;;26.37;20.90;;;19.10;77.90;;;;;;5102335;28;20988;-83
2023/02/13 09:41:29;;;;;;;20.97;16.80;;;19.70;76.10;;;;;;5082030;28;20428;-84
2023/02/13 09:44:01;;;;;;;18.70;15.50;;;19.70;74.60;;;;;;5105809;28;20492;-84
2023/02/13 09:46:34;;;;;;;22.93;18.17;;;19.30;73.60;;;;;;5100055;28;20451;-81
2023/02/13 09:49:05;;;;;;;24.10;17.93;;;18.80;74.00;;;;;;5105181;28;20437;-80
2023/02/13 09:51:31;;;;;;;20.87;18.40;;;18.50;74.90;;;;;;5106908;28;20428;-81
2023/02/13 09:54:01;;;;;;;24.00;18.67;;;18.80;75.60;;;;;;5103277;28;20446;-85
2023/02/13 09:56:53;;;;;;;20.77;17.37;;;19.00;73.50;;;;;;5084576;28;20193;-84
2023/02/13 09:59:50;;;;;;;24.07;18.70;;;18.90;72.90;;;;;;5100432;28;20938;-81
2023/02/13 10:02:45;;;;;;;19.73;16.57;;;19.00;72.30;;;;;;5101425;28;20444;-81
2023/02/13 10:05:17;;;;;;;21.23;17.87;;;18.80;72.10;;;;;;5104826;28;20427;-84
2023/02/13 10:07:42;;;;;;;34.40;24.70;;;18.80;71.30;;;;;;5082922;28;20493;-80
2023/02/13 10:10:27;;;;;;;26.20;19.57;;;18.10;71.00;;;;;;5085464;28;20522;-84
2023/02/13 10:13:26;;;;;;;24.60;19.80;;;17.90;72.10;;;;;;5082905;28;20624;-84
2023/02/13 10:15:58;;;;;;;24.23;20.07;;;17.80;73.30;;;;;;5083518;28;20425;-80
2023/02/13 10:18:34;;;;;;;24.40;21.13;;;17.20;73.90;;;;;;5101077;28;20936;-80
2023/02/13 10:21:02;;;;;;;28.73;21.60;;;16.50;75.10;;;;;;5085407;28;20974;-83
2023/02/13 10:23:44;;;;;;;25.93;20.57;;;15.70;76.40;;;;;;5103651;28;20550;-84
2023/02/13 10:26:19;;;;;;;27.50;22.53;;;14.70;78.80;;;;;;5079886;28;20961;-80
2023/02/13 10:30:03;;;;;;;24.13;20.10;;;14.30;79.40;;;;;;5107910;28;20439;-80
2023/02/13 10:31:45;;;;;;;36.10;23.80;;;14.20;80.90;;;;;;5109747;28;20416;-80
2023/02/13 10:34:15;;;;;;;26.73;21.43;;;13.90;80.60;;;;;;5103316;28;20449;-83
2023/02/13 10:36:44;;;;;;;25.87;20.50;;;13.60;81.30;;;;;;5082885;28;20912;-79
2023/02/13 10:39:30;;;;;;;26.83;19.40;;;13.40;82.60;;;;;;5101245;28;20412;-83
2023/02/13 10:42:21;;;;;;;31.27;23.13;;;13.00;83.20;;;;;;5083380;28;20960;-83
2023/02/13 10:45:38;;;;;;;37.03;29.00;;;12.30;84.40;;;;;;5105275;28;20439;-79
2023/02/13 10:48:32;;;;;;;35.00;25.13;;;12.40;85.50;;;;;;5065750;28;20921;-78
2023/02/13 10:51:18;;;;;;;37.00;25.33;;;12.00;86.70;;;;;;5104948;28;20436;-83
2023/02/13 10:53:43;;;;;;;35.17;23.90;;;11.90;88.00;;;;;;5086492;28;20444;-79
2023/02/13 10:56:18;;;;;;;36.40;23.67;;;11.40;88.30;;;;;;5104629;28;20447;-79
2023/02/13 10:58:55;;;;;;;31.87;23.07;;;11.20;89.80;;;;;;5103965;28;20203;-83
2023/02/13 11:01:32;;;;;;;32.40;23.03;;;11.10;90.00;;;;;;5086735;28;20433;-78
2023/02/13 11:04:08;;;;;;;33.05;21.85;;;11.10;90.50;;;;;;5083908;28;20434;-83
2023/02/13 11:06:36;;;;;;;32.13;23.17;;;11.10;90.60;;;;;;5084052;28;20204;-83
2023/02/13 11:09:06;;;;;;;30.57;23.37;;;11.20;91.10;;;;;;5085595;28;20441;-79
2023/02/13 11:11:35;;;;;;;34.47;24.43;;;11.40;90.80;;;;;;5104564;28;20509;-82
2023/02/13 11:14:22;;;;;;;31.87;24.07;;;11.60;90.60;;;;;;5109158;28;20480;-82
2023/02/13 11:17:15;;;;;;;35.70;25.10;;;11.60;90.30;;;;;;5090193;28;20869;-82
2023/02/13 11:19:53;;;;;;;36.97;23.97;;;11.50;90.70;;;;;;5099979;28;20423;-84
2023/02/13 11:22:38;;;;;;;40.20;28.23;;;11.60;91.10;;;;;;5105408;28;20444;-85
2023/02/13 11:25:17;;;;;;;34.50;25.47;;;11.70;90.70;;;;;;5110779;27;20444;-86
2023/02/13 11:27:44;;;;;;;32.43;21.90;;;11.70;90.90;;;;;;5112323;28;20488;-86
2023/02/13 11:30:22;;;;;;;32.47;23.30;;;11.90;90.50;;;;;;5078601;28;20941;-82
2023/02/13 11:33:25;;;;;;;31.17;23.00;;;12.00;90.90;;;;;;5105075;28;20495;-82
2023/02/13 11:36:05;;;;;;;32.63;22.20;;;11.80;90.90;;;;;;5107165;27;20498;-82
2023/02/13 11:38:30;;;;;;;36.33;22.87;;;11.90;91.10;;;;;;5086412;27;20818;-86
2023/02/13 11:41:12;;;;;;;27.90;20.03;;;11.90;90.80;;;;;;5111313;27;20527;-85
2023/02/13 11:43:48;;;;;;;31.47;21.40;;;11.70;91.20;;;;;;5105731;28;20688;-84
2023/02/13 11:46:20;;;;;;;29.10;20.90;;;11.60;91.60;;;;;;5102367;28;20494;-79
2023/02/13 11:49:05;;;;;;;32.70;21.47;;;11.50;91.50;;;;;;5094739;28;21003;-83
2023/02/13 11:52:00;;;;;;;28.37;21.33;;;11.30;92.20;;;;;;5086860;28;20449;-83
2023/02/13 11:54:41;;;;;;;31.70;21.90;;;11.40;92.10;;;;;;5101450;28;20572;-83
2023/02/13 11:57:20;;;;;;;28.88;19.80;;;11.70;92.00;;;;;;5089276;28;20462;-83
2023/02/13 11:59:49;;;;;;;28.00;18.63;;;11.90;91.70;;;;;;5089617;28;20175;-79
2023/02/13 12:02:21;;;;;;;32.13;20.37;;;11.80;91.70;;;;;;5104675;28;20460;-83
2023/02/13 12:04:53;;;;;;;30.00;19.40;;;11.80;91.90;;;;;;5100940;28;20428;-80
2023/02/13 12:07:25;;;;;;;27.77;18.93;;;11.90;92.30;;;;;;5104033;28;20488;-79
2023/02/13 12:10:07;;;;;;;33.60;22.90;;;11.60;91.90;;;;;;5106775;28;20477;-83
2023/02/13 12:12:42;;;;;;;34.90;20.90;;;11.60;92.40;;;;;;5110875;28;20432;-79
2023/02/13 12:15:21;;;;;;;28.27;20.50;;;11.80;92.30;;;;;;5077889;28;20449;-78
2023/02/13 12:18:02;;;;;;;32.23;21.40;;;12.00;92.20;;;;;;5104146;28;20467;-80
2023/02/13 12:20:36;;;;;;;32.77;21.97;;;12.10;92.00;;;;;;5102984;28;20980;-83
2023/02/13 12:23:06;;;;;;;33.40;23.80;;;12.20;92.00;;;;;;5106618;27;20447;-82
2023/02/13 12:25:53;;;;;;;33.60;24.13;;;12.30;92.20;;;;;;5102348;28;20464;-86
2023/02/13 12:29:00;;;;;;;40.00;26.23;;;12.40;92.00;;;;;;5100955;28;20499;-79
2023/02/13 12:31:53;;;;;;;41.60;27.13;;;12.10;92.10;;;;;;5010863;28;20818;-83
2023/02/13 12:34:40;;;;;;;36.57;25.93;;;11.90;92.60;;;;;;5109057;28;20493;-83
2023/02/13 12:37:18;;;;;;;36.80;25.00;;;12.10;92.70;;;;;;5098394;28;20467;-82
2023/02/13 12:40:23;;;;;;;39.47;26.10;;;12.20;92.50;;;;;;5104837;28;20447;-83
2023/02/13 12:43:03;;;;;;;38.07;26.47;;;12.10;92.60;;;;;;5103949;28;20531;-83
2023/02/13 12:45:48;;;;;;;36.93;27.00;;;11.80;92.80;;;;;;5097199;28;20463;-79
2023/02/13 12:48:25;;;;;;;45.03;28.00;;;11.80;93.10;;;;;;5100271;28;20479;-79
2023/02/13 12:50:56;;;;;;;43.87;27.43;;;11.80;93.30;;;;;;5097464;28;20838;-82
2023/02/13 12:53:33;;;;;;;33.33;25.00;;;11.80;93.20;;;;;;5099202;28;20542;-82
2023/02/13 12:56:41;;;;;;;34.47;22.90;;;11.70;93.50;;;;;;5097711;28;20433;-82
2023/02/13 12:59:18;;;;;;;33.57;24.37;;;11.80;93.40;;;;;;5023051;28;20448;-84
2023/02/13 13:02:13;;;;;;;33.17;24.10;;;11.90;93.10;;;;;;5007267;28;21216;-83
2023/02/13 13:05:05;;;;;;;32.30;23.90;;;11.90;93.00;;;;;;5075628;28;20831;-82
2023/02/13 13:07:54;;;;;;;36.87;25.50;;;11.90;93.20;;;;;;5095556;27;20488;-82
2023/02/13 13:10:28;;;;;;;36.83;26.07;;;11.90;93.60;;;;;;5095445;27;20436;-81
2023/02/13 13:12:54;;;;;;;41.07;26.27;;;12.00;93.30;;;;;;5097601;28;20479;-81
2023/02/13 13:15:27;;;;;;;40.07;23.83;;;12.00;93.10;;;;;;5084171;28;20439;-81
2023/02/13 13:18:17;;;;;;;41.57;26.13;;;11.80;93.20;;;;;;5093538;28;20570;-81
2023/02/13 13:21:01;;;;;;;45.20;30.53;;;11.70;93.40;;;;;;5087506;28;20456;-84
2023/02/13 13:23:31;;;;;;;41.30;28.13;;;11.50;93.90;;;;;;5105181;28;21004;-83
2023/02/13 13:26:12;;;;;;;44.50;31.00;;;11.50;93.60;;;;;;5104845;28;20928;-81
2023/02/13 13:28:43;;;;;;;45.60;31.40;;;11.30;94.10;;;;;;5099216;28;20558;-81
2023/02/13 13:31:11;;;;;;;42.70;29.83;;;11.40;94.10;;;;;;5103276;28;20424;-83
2023/02/13 13:33:41;;;;;;;47.63;37.70;;;11.40;94.10;;;;;;5081774;28;20445;-83
2023/02/13 13:36:25;;;;;;;50.10;31.90;;;11.30;94.10;;;;;;5104451;28;20432;-84
2023/02/13 13:39:03;;;;;;;42.60;28.00;;;11.30;94.50;;;;;;5086962;28;21015;-81